createdAt,value
2022-12-28T00:01:57.048Z,99719.97
2022-12-28T00:04:25.365Z,99728.84
2022-12-28T00:06:53.528Z,99733.28
2022-12-28T00:09:21.803Z,99742.28
2022-12-28T00:11:52.977Z,99735.78
2022-12-28T00:14:21.451Z,99720.06
2022-12-28T00:16:51.048Z,99729.25
2022-12-28T00:19:19.321Z,99718.75
2022-12-28T00:21:48.610Z,99726.44
2022-12-28T00:24:20.315Z,99737.13
2022-12-28T00:26:48.932Z,99741.19
2022-12-28T00:29:17.714Z,99746.28
2022-12-28T00:31:46.689Z,99736.75
2022-12-28T00:34:16.686Z,99734.31
2022-12-28T00:37:08.701Z,99732.50
2022-12-28T00:39:32.921Z,99715.16
2022-12-28T00:42:01.118Z,99715.97
2022-12-28T00:44:30.142Z,99704.66
2022-12-28T00:46:58.240Z,99703.84
2022-12-28T00:49:28.037Z,99720.22
2022-12-28T00:51:56.219Z,99724.00
2022-12-28T00:54:24.409Z,99719.72
2022-12-28T00:56:52.577Z,99724.97
2022-12-28T00:59:20.847Z,99719.09
2022-12-28T01:01:49.204Z,99699.13
2022-12-28T01:04:17.894Z,99700.47
2022-12-28T01:06:47.347Z,99684.72
2022-12-28T01:09:15.655Z,99684.91
2022-12-28T01:11:44.033Z,99679.00
2022-12-28T01:14:13.730Z,99679.53
2022-12-28T01:16:42.229Z,99675.28
2022-12-28T01:19:16.352Z,99681.34
2022-12-28T01:21:44.557Z,99695.25
2022-12-28T01:24:14.600Z,99698.53
2022-12-28T01:26:42.781Z,99688.22
2022-12-28T01:29:11.051Z,99680.19
2022-12-28T01:31:39.304Z,99682.63
2022-12-28T01:34:07.422Z,99667.88
2022-12-28T01:36:36.219Z,99654.78
2022-12-28T01:39:07.429Z,99645.72
2022-12-28T01:41:45.269Z,99626.56
2022-12-28T01:44:41.100Z,99610.38
2022-12-28T01:47:14.667Z,99622.66
2022-12-28T01:49:47.613Z,99625.13
2022-12-28T01:52:22.965Z,99630.72
2022-12-28T01:54:53.941Z,99626.28
2022-12-28T01:57:28.915Z,99617.59
2022-12-28T02:00:02.219Z,99606.31
2022-12-28T02:02:32.091Z,99601.25
2022-12-28T02:05:01.473Z,99606.50
2022-12-28T02:07:40.833Z,99612.69
2022-12-28T02:10:43.732Z,99621.38
2022-12-28T02:13:01.944Z,99612.56
2022-12-28T02:15:30.839Z,99606.13
2022-12-28T02:18:00.094Z,99603.34
2022-12-28T02:20:35.710Z,99594.47
2022-12-28T02:23:24.971Z,99585.44
2022-12-28T02:26:24.793Z,99590.69
2022-12-28T02:29:33.257Z,99597.38
2022-12-28T02:32:09.447Z,99601.28
2022-12-28T02:34:47.335Z,99598.19
2022-12-28T02:37:20.642Z,99599.81
2022-12-28T02:39:53.045Z,99601.44
2022-12-28T02:42:23.430Z,99601.63
2022-12-28T02:45:22.167Z,99602.81
2022-12-28T02:48:09.218Z,99591.06
2022-12-28T02:50:45.800Z,99595.63
2022-12-28T02:53:38.256Z,99584.53
2022-12-28T02:56:15.022Z,99591.09
2022-12-28T02:59:31.791Z,99587.31
2022-12-28T03:02:22.319Z,99575.66
2022-12-28T03:05:09.103Z,99572.84
2022-12-28T03:08:01.538Z,99575.75
2022-12-28T03:10:36.107Z,99559.22
2022-12-28T03:13:30.263Z,99553.28
2022-12-28T03:16:05.891Z,99538.38
2022-12-28T03:18:56.304Z,99531.94
2022-12-28T03:21:45.892Z,99517.81
2022-12-28T03:24:36.227Z,99522.09
2022-12-28T03:27:25.742Z,99519.28
2022-12-28T03:30:17.207Z,99506.97
2022-12-28T03:32:46.307Z,99502.94
2022-12-28T03:35:17.314Z,99504.56
2022-12-28T03:37:53.791Z,99494.88
2022-12-28T03:40:31.554Z,99491.59
2022-12-28T03:43:22.880Z,99489.16
2022-12-28T03:45:56.228Z,99468.84
2022-12-28T03:48:26.396Z,99475.88
2022-12-28T03:50:57.066Z,99467.03
2022-12-28T03:53:31.556Z,99465.22
2022-12-28T03:56:10.930Z,99453.72
2022-12-28T03:58:39.334Z,99456.53
2022-12-28T04:01:07.709Z,99447.66
2022-12-28T04:03:36.231Z,99436.38
2022-12-28T04:06:06.876Z,99428.31
2022-12-28T04:08:35.776Z,99425.06
2022-12-28T04:11:04.002Z,99417.38
2022-12-28T04:13:33.404Z,99423.81
2022-12-28T04:16:03.697Z,99415.28
2022-12-28T04:18:31.992Z,99420.91
2022-12-28T04:21:00.613Z,99417.66
2022-12-28T04:23:31.401Z,99402.28
2022-12-28T04:26:01.484Z,99405.06
2022-12-28T04:28:30.001Z,99388.91
2022-12-28T04:30:59.236Z,99387.66
2022-12-28T04:33:28.462Z,99388.81
2022-12-28T04:36:06.923Z,99386.38
2022-12-28T04:38:37.596Z,99380.31
2022-12-28T04:41:07.758Z,99373.81
2022-12-28T04:43:36.250Z,99352.19
2022-12-28T04:46:07.244Z,99345.53
2022-12-28T04:48:36.272Z,99348.34
2022-12-28T04:51:07.999Z,99360.59
2022-12-28T04:53:39.674Z,99339.63
2022-12-28T04:56:09.080Z,99332.63
2022-12-28T04:58:38.144Z,99327.66
2022-12-28T05:01:07.271Z,99317.78
2022-12-28T05:03:36.189Z,99305.47
2022-12-28T05:06:05.595Z,99300.88
2022-12-28T05:08:34.360Z,99292.47
2022-12-28T05:11:05.316Z,99286.41
2022-12-28T05:13:34.499Z,99283.63
2022-12-28T05:16:03.405Z,99278.38
2022-12-28T05:18:31.949Z,99270.31
2022-12-28T05:21:04.987Z,99269.16
2022-12-28T05:23:35.040Z,99255.03
2022-12-28T05:26:05.193Z,99256.66
2022-12-28T05:28:33.704Z,99242.75
2022-12-28T05:31:03.489Z,99233.31
2022-12-28T05:33:32.671Z,99220.66
2022-12-28T05:36:04.789Z,99209.81
2022-12-28T05:38:34.607Z,99205.78
2022-12-28T05:41:17.217Z,99193.94
2022-12-28T05:43:46.579Z,99179.84
2022-12-28T05:46:17.184Z,99170.53
2022-12-28T05:48:45.435Z,99159.84
2022-12-28T05:51:16.104Z,99155.97
2022-12-28T05:53:44.670Z,99149.13
2022-12-28T05:56:15.879Z,99131.41
2022-12-28T05:58:44.626Z,99117.25
2022-12-28T06:01:15.145Z,99112.41
2022-12-28T06:03:44.186Z,99093.06
2022-12-28T06:06:14.352Z,99081.16
2022-12-28T06:08:43.462Z,99070.84
2022-12-28T06:11:15.820Z,99055.50
2022-12-28T06:13:44.459Z,99039.53
2022-12-28T06:16:15.116Z,99028.03
2022-12-28T06:18:43.664Z,99018.00
2022-12-28T06:21:14.386Z,98997.81
2022-12-28T06:23:43.400Z,98985.72
2022-12-28T06:26:17.299Z,98985.50
2022-12-28T06:28:45.992Z,98978.59
2022-12-28T06:31:16.293Z,98959.66
2022-12-28T06:33:45.139Z,98938.06
2022-12-28T06:36:19.579Z,98933.22
2022-12-28T06:38:49.422Z,98917.47
2022-12-28T06:41:21.719Z,98902.13
2022-12-28T06:43:51.208Z,98895.88
2022-12-28T06:46:20.913Z,98885.59
2022-12-28T06:48:49.427Z,98870.28
2022-12-28T06:51:19.533Z,98859.19
2022-12-28T06:53:49.429Z,98845.91
2022-12-28T06:56:20.874Z,98834.41
2022-12-28T06:58:49.575Z,98812.00
2022-12-28T07:01:20.014Z,98797.53
2022-12-28T07:03:49.687Z,98779.97
2022-12-28T07:06:19.578Z,98771.13
2022-12-28T07:08:48.025Z,98767.31
2022-12-28T07:11:20.421Z,98742.31
2022-12-28T07:13:49.173Z,98727.97
2022-12-28T07:16:19.137Z,98718.31
2022-12-28T07:18:48.082Z,98704.41
2022-12-28T07:21:18.796Z,98686.06
2022-12-28T07:23:47.100Z,98657.22
2022-12-28T07:26:17.721Z,98656.63
2022-12-28T07:28:49.077Z,98635.44
2022-12-28T07:31:20.044Z,98627.19
2022-12-28T07:33:48.926Z,98617.50
2022-12-28T07:36:18.945Z,98591.09
2022-12-28T07:38:47.274Z,98589.28
2022-12-28T07:41:16.932Z,98573.97
2022-12-28T07:43:45.563Z,98552.56
2022-12-28T07:46:17.144Z,98548.97
2022-12-28T07:48:46.974Z,98537.66
2022-12-28T07:51:16.765Z,98529.59
2022-12-28T07:53:46.817Z,98525.56
2022-12-28T07:56:15.986Z,98517.09
2022-12-28T08:01:17.338Z,98493.50
2022-12-28T08:03:46.690Z,98485.25
2022-12-28T08:06:18.916Z,98470.31
2022-12-28T08:08:48.472Z,98409.00
2022-12-28T08:11:18.457Z,98376.75
2022-12-28T08:13:48.019Z,98350.94
2022-12-28T08:16:19.646Z,98330.75
2022-12-28T08:18:48.772Z,98325.13
2022-12-28T08:21:18.864Z,98304.94
2022-12-28T08:23:48.068Z,98289.78
2022-12-28T08:26:18.793Z,98273.84
2022-12-28T08:28:48.666Z,98263.34
2022-12-28T08:31:20.693Z,98250.84
2022-12-28T08:33:49.777Z,98235.50
2022-12-28T08:36:18.061Z,98227.66
2022-12-28T08:38:47.068Z,98211.69
2022-12-28T08:41:17.216Z,98194.72
2022-12-28T08:43:45.869Z,98188.69
2022-12-28T08:46:16.570Z,98179.81
2022-12-28T08:48:47.367Z,98163.47
2022-12-28T08:51:18.631Z,98143.91
2022-12-28T08:53:47.951Z,98124.53
2022-12-28T08:56:18.931Z,98116.66
2022-12-28T08:58:47.609Z,98101.94
2022-12-28T09:01:18.037Z,98082.16
2022-12-28T09:03:49.736Z,98068.00
2022-12-28T09:06:19.808Z,98058.31
2022-12-28T09:09:04.794Z,98053.88
2022-12-28T09:11:34.637Z,98042.59
2022-12-28T09:14:03.228Z,98040.78
2022-12-28T09:16:31.479Z,98030.84
2022-12-28T09:19:03.506Z,98026.44
2022-12-28T09:21:33.559Z,98025.19
2022-12-28T09:24:01.688Z,98022.78
2022-12-28T09:26:32.267Z,98012.66
2022-12-28T09:29:02.348Z,97992.69
2022-12-28T09:31:32.007Z,97992.69
2022-12-28T09:36:50.002Z,97973.66
2022-12-28T09:39:19.970Z,97960.94
2022-12-28T09:41:53.652Z,97952.41
2022-12-28T09:44:51.943Z,97926.31
2022-12-28T09:47:26.311Z,97920.41
2022-12-28T09:50:05.220Z,97906.22
2022-12-28T09:52:36.614Z,97904.50
2022-12-28T09:55:14.157Z,97897.00
2022-12-28T09:57:46.875Z,97886.63
2022-12-28T10:00:20.896Z,97872.59
2022-12-28T10:02:53.129Z,97864.84
2022-12-28T10:05:23.774Z,97852.09
2022-12-28T10:07:54.242Z,97834.28
2022-12-28T10:10:25.053Z,97830.19
2022-12-28T10:12:53.924Z,97816.25
2022-12-28T10:15:24.484Z,97809.19
2022-12-28T10:17:52.844Z,97807.34
2022-12-28T10:20:23.643Z,97800.84
2022-12-28T10:22:54.253Z,97793.31
2022-12-28T10:25:24.640Z,97788.63
2022-12-28T10:27:53.714Z,97783.16
2022-12-28T10:30:27.382Z,97770.38
2022-12-28T10:33:02.520Z,97753.59
2022-12-28T10:35:39.355Z,97744.22
2022-12-28T10:38:21.326Z,97742.19
2022-12-28T10:40:58.142Z,97728.56
2022-12-28T10:43:30.724Z,97724.69
2022-12-28T10:46:01.596Z,97720.91
2022-12-28T10:48:33.012Z,97713.16
2022-12-28T10:51:12.304Z,97709.81
2022-12-28T10:53:44.239Z,97695.75
2022-12-28T10:56:25.037Z,97699.28
2022-12-28T10:58:54.229Z,97687.91
2022-12-28T11:01:27.808Z,97671.88
2022-12-28T11:04:03.567Z,97658.91
2022-12-28T11:06:34.679Z,97644.56
2022-12-28T11:09:17.794Z,97629.22
2022-12-28T11:11:47.615Z,97636.13
2022-12-28T11:14:25.086Z,97630.41
2022-12-28T11:16:53.670Z,97624.66
2022-12-28T11:19:23.486Z,97634.16
2022-12-28T11:21:53.800Z,97626.81
2022-12-28T11:24:27.237Z,97623.16
2022-12-28T11:26:55.546Z,97616.88
2022-12-28T11:29:23.677Z,97615.03
2022-12-28T11:32:00.093Z,97606.34
2022-12-28T11:34:31.196Z,97604.50
2022-12-28T11:37:01.258Z,97602.09
2022-12-28T11:39:45.343Z,97588.47
2022-12-28T11:42:39.525Z,97559.31
2022-12-28T11:45:15.049Z,97542.25
2022-12-28T11:47:43.850Z,97530.69
2022-12-28T11:50:51.534Z,97517.28
2022-12-28T11:53:53.008Z,97514.97
2022-12-28T11:56:21.857Z,97524.44
2022-12-28T11:59:06.249Z,97527.13
2022-12-28T12:01:45.159Z,97521.16
2022-12-28T12:04:34.462Z,97531.53
2022-12-28T12:07:31.711Z,97516.13
2022-12-28T12:10:42.730Z,97526.72
2022-12-28T12:13:50.494Z,97516.00
2022-12-28T12:16:27.720Z,97512.38
2022-12-28T12:19:00.150Z,97509.81
2022-12-28T12:21:35.274Z,97487.19
2022-12-28T12:24:14.808Z,97500.19
2022-12-28T12:26:52.014Z,97492.81
2022-12-28T12:29:24.425Z,97484.44
2022-12-28T12:31:59.448Z,97477.34
2022-12-28T12:34:36.043Z,97477.88
2022-12-28T12:37:41.265Z,97470.19
2022-12-28T12:40:51.031Z,97452.50
2022-12-28T12:43:30.618Z,97444.34
2022-12-28T12:46:16.071Z,97418.53
2022-12-28T12:49:08.717Z,97420.09
2022-12-28T12:51:45.217Z,97406.69
2022-12-28T12:54:31.907Z,97385.63
2022-12-28T12:57:04.389Z,97375.38
2022-12-28T12:59:47.001Z,97366.38
2022-12-28T13:02:29.604Z,97360.81
2022-12-28T13:04:57.901Z,97342.41
2022-12-28T13:07:28.309Z,97344.50
2022-12-28T13:09:59.833Z,97333.97
2022-12-28T13:12:27.911Z,97325.53
2022-12-28T13:15:00.406Z,97321.28
2022-12-28T13:17:29.762Z,97313.41
2022-12-28T13:20:18.804Z,97291.25
2022-12-28T13:22:48.217Z,97290.75
2022-12-28T13:25:25.533Z,97292.31
2022-12-28T13:27:53.953Z,97285.44
2022-12-28T13:30:25.849Z,97283.88
2022-12-28T13:32:56.123Z,97280.44
2022-12-28T13:35:26.804Z,97283.88
2022-12-28T13:38:03.868Z,97288.31
2022-12-28T13:40:33.542Z,97283.84
2022-12-28T13:43:20.450Z,97278.81
2022-12-28T13:45:54.088Z,97280.66
2022-12-28T13:48:23.831Z,97291.97
2022-12-28T13:50:53.453Z,97292.78
2022-12-28T13:53:25.096Z,97294.84
2022-12-28T13:55:55.547Z,97300.88
2022-12-28T13:58:28.255Z,97304.81
2022-12-28T14:01:01.855Z,97316.88
2022-12-28T14:03:35.927Z,97323.41
2022-12-28T14:06:09.332Z,97349.97
2022-12-28T14:08:40.663Z,97362.81
2022-12-28T14:11:09.404Z,97368.31
2022-12-28T14:13:39.282Z,97379.91
2022-12-28T14:16:10.206Z,97384.84
2022-12-28T14:18:39.092Z,97388.22
2022-12-28T14:21:07.684Z,97399.53
2022-12-28T14:23:38.671Z,97396.91
2022-12-28T14:26:09.767Z,97401.59
2022-12-28T14:28:41.955Z,97416.59
2022-12-28T14:31:14.921Z,97415.00
2022-12-28T14:33:52.648Z,97408.41
2022-12-28T14:36:23.225Z,97402.91
2022-12-28T14:38:54.862Z,97413.91
2022-12-28T14:41:31.122Z,97411.31
2022-12-28T14:44:02.105Z,97417.16
2022-12-28T14:46:34.655Z,97429.00
2022-12-28T14:49:31.324Z,97414.00
2022-12-28T14:52:39.202Z,97424.00
2022-12-28T14:55:33.551Z,97419.00
2022-12-28T14:58:06.337Z,97420.56
2022-12-28T15:00:37.520Z,97425.72
2022-12-28T15:03:20.103Z,97410.72
2022-12-28T15:05:51.375Z,97392.09
2022-12-28T15:08:20.279Z,97407.88
2022-12-28T15:10:52.087Z,97413.66
2022-12-28T15:13:21.537Z,97410.88
2022-12-28T15:16:01.119Z,97410.06
2022-12-28T15:18:31.723Z,97420.81
2022-12-28T15:21:04.496Z,97437.97
2022-12-28T15:23:32.672Z,97427.41
2022-12-28T15:26:07.784Z,97441.34
2022-12-28T15:28:36.130Z,97445.81
2022-12-28T15:31:06.987Z,97456.34
2022-12-28T15:33:37.051Z,97445.50
2022-12-28T15:36:08.489Z,97455.94
2022-12-28T15:38:40.473Z,97458.25
2022-12-28T15:41:29.100Z,97462.72
2022-12-28T15:43:57.538Z,97461.94
2022-12-28T15:46:25.816Z,97462.72
2022-12-28T15:48:55.407Z,97456.69
2022-12-28T15:51:23.536Z,97461.94
2022-12-28T15:53:51.780Z,97455.88
2022-12-28T15:56:22.726Z,97466.88
2022-12-28T15:58:50.972Z,97456.94
2022-12-28T16:01:19.389Z,97465.84
2022-12-28T16:03:50.376Z,97453.47
2022-12-28T16:06:20.248Z,97458.75
2022-12-28T16:08:49.003Z,97463.22
2022-12-28T16:11:18.330Z,97457.16
2022-12-28T16:13:52.312Z,97472.16
2022-12-28T16:16:21.188Z,97453.47
2022-12-28T16:18:49.904Z,97470.09
2022-12-28T16:21:19.724Z,97460.84
2022-12-28T16:23:47.908Z,97473.97
2022-12-28T16:26:16.035Z,97467.69
2022-12-28T16:28:44.788Z,97460.56
2022-12-28T16:31:22.895Z,97464.25
2022-12-28T16:33:54.246Z,97454.47
2022-12-28T16:36:24.319Z,97464.97
2022-12-28T16:38:53.049Z,97464.44
2022-12-28T16:41:21.922Z,97459.19
2022-12-28T16:43:50.494Z,97458.13
2022-12-28T16:46:19.409Z,97463.41
2022-12-28T16:48:47.568Z,97447.38
2022-12-28T16:51:15.814Z,97451.84
2022-12-28T16:53:45.504Z,97453.13
2022-12-28T16:56:13.799Z,97442.28
2022-12-28T16:58:46.114Z,97449.63
2022-12-28T17:01:18.434Z,97444.06
2022-12-28T17:03:46.677Z,97446.38
2022-12-28T17:06:16.441Z,97452.13
2022-12-28T17:08:46.541Z,97452.38
2022-12-28T17:11:15.225Z,97451.34
2022-12-28T17:13:43.284Z,97467.38
2022-12-28T17:16:11.460Z,97446.88
2022-12-28T17:18:39.717Z,97434.50
2022-12-28T17:21:10.449Z,97438.97
2022-12-28T17:23:40.596Z,97442.41
2022-12-28T17:26:10.390Z,97436.66
2022-12-28T17:28:38.593Z,97449.03
2022-12-28T17:31:09.449Z,97452.44
2022-12-28T17:33:39.961Z,97459.53
2022-12-28T17:36:09.606Z,97448.44
2022-12-28T17:38:37.954Z,97457.16
2022-12-28T17:41:21.736Z,97443.19
2022-12-28T17:43:51.199Z,97438.50
2022-12-28T17:46:20.212Z,97435.88
2022-12-28T17:48:48.542Z,97432.91
2022-12-28T17:51:16.661Z,97433.72
2022-12-28T17:53:44.824Z,97427.91
2022-12-28T17:56:15.555Z,97419.53
2022-12-28T17:58:44.981Z,97416.09
2022-12-28T18:01:13.932Z,97406.69
2022-12-28T18:03:43.217Z,97401.69
2022-12-28T18:06:11.789Z,97406.38
2022-12-28T18:08:39.905Z,97406.31
2022-12-28T18:11:10.982Z,97398.72
2022-12-28T18:13:41.302Z,97384.25
2022-12-28T18:16:13.026Z,97412.88
2022-12-28T18:18:41.351Z,97404.25
2022-12-28T18:21:19.448Z,97400.03
2022-12-28T18:23:51.103Z,97406.31
2022-12-28T18:26:21.003Z,97411.56
2022-12-28T18:28:50.762Z,97432.88
2022-12-28T18:31:20.103Z,97428.41
2022-12-28T18:33:48.420Z,97432.59
2022-12-28T18:36:18.071Z,97427.59
2022-12-28T18:38:47.263Z,97433.66
2022-12-28T18:41:16.962Z,97456.28
2022-12-28T18:43:45.672Z,97440.28
2022-12-28T18:46:15.924Z,97447.38
2022-12-28T18:48:44.168Z,97446.81
2022-12-28T18:51:13.876Z,97448.63
2022-12-28T18:53:42.319Z,97450.94
2022-12-28T18:56:12.742Z,97459.34
2022-12-28T18:58:41.824Z,97459.28
2022-12-28T19:01:39.714Z,97452.97
2022-12-28T19:04:02.934Z,97461.91
2022-12-28T19:06:32.829Z,97463.72
2022-12-28T19:09:02.133Z,97485.00
2022-12-28T19:11:31.059Z,97468.91
2022-12-28T19:13:59.415Z,97474.47
2022-12-28T19:16:31.611Z,97471.53
2022-12-28T19:19:00.534Z,97490.00
2022-12-28T19:21:32.070Z,97489.47
2022-12-28T19:24:03.143Z,97492.34
2022-12-28T19:26:32.676Z,97508.72
2022-12-28T19:29:01.533Z,97507.63
2022-12-28T19:31:29.859Z,97511.53
2022-12-28T19:33:58.070Z,97522.59
2022-12-28T19:36:26.583Z,97534.41
2022-12-28T19:38:56.806Z,97546.97
2022-12-28T19:41:25.636Z,97573.75
2022-12-28T19:43:53.925Z,97573.75
2022-12-28T19:46:23.464Z,97573.69
2022-12-28T19:48:54.054Z,97583.06
2022-12-28T19:51:27.161Z,97590.97
2022-12-28T19:54:00.088Z,97610.63
2022-12-28T19:56:28.646Z,97614.53
2022-12-28T19:59:05.148Z,97621.84
2022-12-28T20:01:36.261Z,97622.88
2022-12-28T20:04:12.320Z,97629.19
2022-12-28T20:06:41.313Z,97633.53
2022-12-28T20:09:11.806Z,97648.31
2022-12-28T20:11:40.886Z,97647.75
2022-12-28T20:14:09.451Z,97645.84
2022-12-28T20:16:38.047Z,97650.50
2022-12-28T20:19:08.731Z,97649.19
2022-12-28T20:21:38.065Z,97661.53
2022-12-28T20:24:07.678Z,97652.75
2022-12-28T20:26:37.508Z,97667.25
2022-12-28T20:29:06.079Z,97664.06
2022-12-28T20:31:34.739Z,97669.22
2022-12-28T20:34:02.979Z,97668.41
2022-12-28T20:36:34.049Z,97668.16
2022-12-28T20:39:02.971Z,97671.03
2022-12-28T20:41:49.470Z,97667.03
2022-12-28T20:44:25.695Z,97666.72
2022-12-28T20:46:55.039Z,97670.03
2022-12-28T20:49:23.813Z,97674.16
2022-12-28T20:51:52.441Z,97668.78
2022-12-28T20:54:21.119Z,97687.63
2022-12-28T20:56:54.856Z,97689.34
2022-12-28T20:59:26.453Z,97700.28
2022-12-28T21:01:55.363Z,97705.19
2022-12-28T21:04:25.015Z,97707.25
2022-12-28T21:06:53.787Z,97721.41
2022-12-28T21:09:21.929Z,97726.66
2022-12-28T21:11:50.197Z,97718.88
2022-12-28T21:14:18.349Z,97736.47
2022-12-28T21:16:48.470Z,97745.59
2022-12-28T21:19:16.910Z,97750.06
2022-12-28T21:21:45.024Z,97755.50
2022-12-28T21:24:13.365Z,97759.59
2022-12-28T21:26:41.842Z,97773.59
2022-12-28T21:29:10.114Z,97779.47
2022-12-28T21:31:38.348Z,97788.16
2022-12-28T21:34:07.984Z,97785.84
2022-12-28T21:36:36.250Z,97792.47
2022-12-28T21:39:05.008Z,97787.34
2022-12-28T21:41:51.800Z,97792.59
2022-12-28T21:44:22.628Z,97793.03
2022-12-28T21:46:52.365Z,97797.16
2022-12-28T21:49:22.130Z,97793.94
2022-12-28T21:51:51.624Z,97795.22
2022-12-28T21:54:21.457Z,97799.63
2022-12-28T21:56:52.096Z,97800.31
2022-12-28T21:59:21.058Z,97803.38
2022-12-28T22:02:06.642Z,97803.00
2022-12-28T22:05:00.211Z,97801.41
2022-12-28T22:07:30.754Z,97801.84
2022-12-28T22:10:16.543Z,97810.63
2022-12-28T22:12:44.808Z,97806.19
2022-12-28T22:15:32.198Z,97808.00
2022-12-28T22:18:02.027Z,97810.88
2022-12-28T22:20:33.403Z,97819.97
2022-12-28T22:23:02.595Z,97818.38
2022-12-28T22:25:31.771Z,97827.84
2022-12-28T22:28:00.846Z,97832.28
2022-12-28T22:30:29.823Z,97827.28
2022-12-28T22:32:58.376Z,97826.47
2022-12-28T22:35:26.590Z,97824.28
2022-12-28T22:37:56.196Z,97821.66
2022-12-28T22:40:24.902Z,97832.59
2022-12-28T22:42:53.228Z,97830.75
2022-12-28T22:45:23.679Z,97833.38
2022-12-28T22:47:54.313Z,97842.88
2022-12-28T22:50:23.012Z,97829.16
2022-12-28T22:52:51.314Z,97833.84
2022-12-28T22:55:20.883Z,97840.31
2022-12-28T22:57:48.990Z,97834.50
2022-12-28T23:00:17.306Z,97855.69
2022-12-28T23:02:46.498Z,97851.47
2022-12-28T23:05:14.877Z,97855.91
2022-12-28T23:07:43.100Z,97857.97
2022-12-28T23:10:11.556Z,97867.66
2022-12-28T23:12:41.171Z,97865.84
2022-12-28T23:15:19.219Z,97869.44
2022-12-28T23:17:48.053Z,97885.41
2022-12-28T23:20:34.037Z,97889.84
2022-12-28T23:23:19.639Z,97902.53
2022-12-28T23:26:05.233Z,97895.09
2022-12-28T23:28:36.084Z,97898.28
2022-12-28T23:31:05.148Z,97888.25
2022-12-28T23:33:33.454Z,97908.22
2022-12-28T23:36:03.754Z,97912.22
2022-12-28T23:38:32.902Z,97914.84
2022-12-28T23:41:14.936Z,97914.38
2022-12-28T23:43:44.549Z,97912.00
2022-12-28T23:46:12.783Z,97922.50
2022-12-28T23:48:40.939Z,97916.44
2022-12-28T23:51:09.275Z,97919.50
2022-12-28T23:53:37.573Z,97927.78
2022-12-28T23:56:06.089Z,97938.06
2022-12-28T23:58:34.185Z,97935.06
